Time;durP1;ratioP1;P1;durP2;ratioP2;P2;SDS_P1;SDS_P2;PMS_P1;PMS_P2;Temp;Humidity;BMP_temperature;BMP_pressure;BME280_temperature;BME280_humidity;BME280_pressure;Samples;Min_cycle;Max_cycle;Signal;HPM_P1;HPM_P2
2021/05/19 00:06:00;;;;;;;3.20;2.20;;;9.20;99.90;;;;;;5069383;28;20128;-88
2021/05/19 00:11:10;;;;;;;2.83;1.73;;;9.10;99.90;;;;;;5069327;28;20043;-85
2021/05/19 00:13:37;;;;;;;2.70;1.80;;;9.00;99.90;;;;;;5034718;28;20064;-86
2021/05/19 00:16:07;;;;;;;4.35;2.20;;;9.00;99.90;;;;;;5034788;28;20048;-87
2021/05/19 00:19:10;;;;;;;3.33;2.15;;;9.00;99.90;;;;;;5051382;28;20120;-87
2021/05/19 00:21:37;;;;;;;3.38;1.90;;;8.90;99.90;;;;;;5047928;28;20062;-86
2021/05/19 00:24:05;;;;;;;4.13;2.08;;;8.90;99.90;;;;;;5050303;28;20108;-87
2021/05/19 00:26:31;;;;;;;3.67;2.33;;;8.90;99.90;;;;;;5050166;28;20033;-87
2021/05/19 00:32:01;;;;;;;3.70;2.22;;;8.80;99.90;;;;;;5070897;28;20039;-88
2021/05/19 00:34:27;;;;;;;4.53;2.20;;;8.80;99.90;;;;;;5041010;28;20389;-87
2021/05/19 00:36:53;;;;;;;3.30;2.30;;;8.80;99.90;;;;;;5053232;28;20025;-88
2021/05/19 00:39:19;;;;;;;3.45;2.30;;;8.80;99.90;;;;;;5053272;28;20033;-87
2021/05/19 00:42:04;;;;;;;3.67;2.15;;;8.70;99.90;;;;;;5054768;28;20036;-88
2021/05/19 00:44:30;;;;;;;3.33;2.13;;;8.70;99.90;;;;;;5056258;28;20032;-87
2021/05/19 00:47:14;;;;;;;3.53;2.20;;;8.70;99.90;;;;;;5056560;28;20055;-87
2021/05/19 00:53:01;;;;;;;3.17;2.20;;;8.60;99.90;;;;;;5054433;28;20048;-88
2021/05/19 00:55:27;;;;;;;4.03;2.28;;;8.60;99.90;;;;;;5037244;28;20049;-88
2021/05/19 00:57:55;;;;;;;5.28;2.72;;;8.60;99.90;;;;;;5074402;28;20051;-87
2021/05/19 01:00:23;;;;;;;3.10;2.10;;;8.60;99.90;;;;;;5056621;28;20121;-88
2021/05/19 01:06:16;;;;;;;5.97;2.60;;;8.70;99.90;;;;;;5094618;28;20070;-88
2021/05/19 01:20:00;;;;;;;5.30;3.20;;;9.20;99.90;;;;;;5093855;28;20109;-89
2021/05/19 01:22:30;;;;;;;4.70;3.20;;;9.30;99.90;;;;;;5078446;28;20436;-89
2021/05/19 01:25:17;;;;;;;4.38;3.10;;;9.30;99.90;;;;;;5081362;28;20071;-89
2021/05/19 01:28:03;;;;;;;4.28;2.90;;;9.40;99.90;;;;;;5085432;28;20040;-89
2021/05/19 01:30:48;;;;;;;5.22;3.20;;;9.40;99.90;;;;;;5079690;28;20085;-88
2021/05/19 01:33:14;;;;;;;4.82;3.22;;;9.30;99.90;;;;;;5096201;28;20040;-87
2021/05/19 01:35:59;;;;;;;4.00;2.85;;;9.30;99.90;;;;;;5095656;28;20043;-88
2021/05/19 01:41:29;;;;;;;4.07;3.05;;;9.10;99.90;;;;;;5096376;28;20051;-89
2021/05/19 01:44:14;;;;;;;7.32;3.35;;;9.10;99.90;;;;;;5082183;28;20077;-89
2021/05/19 01:50:22;;;;;;;4.55;3.38;;;8.90;99.90;;;;;;5102375;28;20022;-89
2021/05/19 01:52:51;;;;;;;4.15;3.05;;;8.80;99.90;;;;;;5097534;28;20032;-87
2021/05/19 01:55:18;;;;;;;5.40;3.53;;;8.80;99.90;;;;;;5098313;28;20438;-88
2021/05/19 01:58:02;;;;;;;5.65;3.78;;;8.70;99.90;;;;;;5098352;28;20428;-87
2021/05/19 02:00:28;;;;;;;4.82;3.38;;;8.70;99.90;;;;;;5098114;28;20536;-88
2021/05/19 02:03:05;;;;;;;6.85;3.67;;;8.70;99.90;;;;;;5098759;28;20035;-88
2021/05/19 02:05:51;;;;;;;5.20;3.47;;;8.70;99.90;;;;;;5116262;28;20479;-88
2021/05/19 02:08:36;;;;;;;6.43;4.22;;;8.60;99.90;;;;;;5098125;28;20035;-88
2021/05/19 02:11:02;;;;;;;5.38;3.65;;;8.60;99.90;;;;;;5097983;28;20160;-88
2021/05/19 02:13:46;;;;;;;5.28;3.42;;;8.60;99.90;;;;;;5098179;28;20038;-88
2021/05/19 02:16:12;;;;;;;5.90;3.85;;;8.60;99.90;;;;;;5081776;28;20062;-89
2021/05/19 02:19:02;;;;;;;7.07;4.15;;;8.50;99.90;;;;;;5094107;28;20131;-88
2021/05/19 02:21:28;;;;;;;6.22;4.32;;;8.50;99.90;;;;;;5077433;28;20029;-89
2021/05/19 02:24:14;;;;;;;6.47;4.47;;;8.50;99.90;;;;;;5077627;28;20036;-89
2021/05/19 02:26:43;;;;;;;6.60;4.57;;;8.40;99.90;;;;;;5077403;28;20047;-88
2021/05/19 02:29:10;;;;;;;5.97;4.43;;;8.40;99.90;;;;;;5095159;28;20032;-88
2021/05/19 02:31:57;;;;;;;5.85;4.20;;;8.40;99.90;;;;;;5077428;28;20119;-88
2021/05/19 02:37:07;;;;;;;6.35;4.55;;;8.30;99.90;;;;;;5095505;28;20065;-89
2021/05/19 02:39:36;;;;;;;9.27;4.57;;;8.30;99.90;;;;;;5095304;28;20066;-88
2021/05/19 02:42:21;;;;;;;6.53;4.47;;;8.30;99.90;;;;;;5076723;28;20039;-89
2021/05/19 02:44:48;;;;;;;6.72;4.82;;;8.30;99.90;;;;;;5077463;28;20124;-89
2021/05/19 02:52:45;;;;;;;7.07;4.55;;;8.30;99.90;;;;;;5074648;28;20110;-88
2021/05/19 02:55:31;;;;;;;6.80;4.85;;;8.30;99.90;;;;;;5074579;28;20415;-88
2021/05/19 03:03:45;;;;;;;7.90;5.68;;;8.30;99.90;;;;;;5074053;28;20167;-90
2021/05/19 03:06:13;;;;;;;6.55;5.05;;;8.30;99.90;;;;;;5090386;28;20032;-89
2021/05/19 03:08:40;;;;;;;7.15;5.93;;;8.30;99.90;;;;;;5077067;28;20032;-88
2021/05/19 03:11:25;;;;;;;9.00;5.55;;;8.30;99.90;;;;;;5089593;28;20047;-89
2021/05/19 03:13:51;;;;;;;8.15;6.57;;;8.30;99.90;;;;;;5089499;28;20501;-89
2021/05/19 03:16:18;;;;;;;7.55;5.82;;;8.30;99.90;;;;;;5096968;28;20127;-88
2021/05/19 03:18:44;;;;;;;9.95;6.40;;;8.20;99.90;;;;;;5115062;28;20475;-89
2021/05/19 03:24:13;;;;;;;6.72;5.35;;;8.20;99.90;;;;;;5115115;28;20042;-88
2021/05/19 03:32:26;;;;;;;7.50;5.30;;;8.20;99.90;;;;;;5094135;28;20039;-88
2021/05/19 03:34:52;;;;;;;6.30;5.18;;;8.10;99.90;;;;;;5077543;28;20032;-88
2021/05/19 03:37:55;;;;;;;7.32;5.40;;;8.20;99.90;;;;;;5087838;28;20084;-88
2021/05/19 03:43:08;;;;;;;7.22;5.22;;;8.20;99.90;;;;;;5092704;28;20055;-87
2021/05/19 03:45:34;;;;;;;7.65;5.70;;;8.30;99.90;;;;;;5086656;28;20047;-88
2021/05/19 03:48:07;;;;;;;6.90;5.53;;;8.40;99.90;;;;;;5100257;28;20416;-87
2021/05/19 03:53:17;;;;;;;6.93;5.55;;;8.50;99.90;;;;;;5094030;28;20047;-90
2021/05/19 03:56:01;;;;;;;8.07;6.03;;;8.60;99.90;;;;;;5083732;28;20043;-88
2021/05/19 03:58:27;;;;;;;9.38;6.93;;;8.60;99.90;;;;;;5094053;28;20507;-88
2021/05/19 04:01:12;;;;;;;7.53;6.25;;;8.70;99.90;;;;;;5077854;28;20031;-89
2021/05/19 04:03:58;;;;;;;9.05;6.63;;;8.80;99.90;;;;;;5067840;28;20040;-89
2021/05/19 04:06:42;;;;;;;7.68;6.22;;;8.80;99.90;;;;;;5078566;28;20059;-88
2021/05/19 04:09:27;;;;;;;8.68;6.30;;;8.80;99.90;;;;;;5081778;28;20066;-89
2021/05/19 04:12:11;;;;;;;9.48;7.03;;;8.90;99.90;;;;;;5082566;28;20511;-88
2021/05/19 04:14:56;;;;;;;8.18;6.35;;;8.90;99.90;;;;;;5093993;28;20046;-90
2021/05/19 04:17:22;;;;;;;8.18;6.80;;;8.90;99.90;;;;;;5089674;28;20032;-87
2021/05/19 04:19:48;;;;;;;7.90;6.63;;;8.90;99.90;;;;;;5097286;28;20039;-90
2021/05/19 04:22:34;;;;;;;8.32;6.35;;;8.90;99.90;;;;;;5083621;28;20438;-90
2021/05/19 04:25:19;;;;;;;6.90;5.72;;;9.00;99.90;;;;;;5071228;28;20036;-88
2021/05/19 04:36:18;;;;;;;7.03;6.10;;;9.20;99.90;;;;;;5069371;28;20079;-88
2021/05/19 04:39:03;;;;;;;7.03;5.53;;;9.20;99.90;;;;;;5073404;28;20056;-88
2021/05/19 04:47:19;;;;;;;9.57;7.45;;;9.30;99.90;;;;;;5077654;28;20036;-89
2021/05/19 04:49:46;;;;;;;9.45;6.65;;;9.30;99.90;;;;;;5096227;28;20051;-88
2021/05/19 04:52:12;;;;;;;9.35;6.47;;;9.40;99.90;;;;;;5082306;28;20047;-89
2021/05/19 04:57:23;;;;;;;9.32;7.55;;;9.40;99.90;;;;;;5079859;28;20095;-88
2021/05/19 04:59:51;;;;;;;9.35;7.25;;;9.40;99.90;;;;;;5040861;28;20040;-88
2021/05/19 05:02:39;;;;;;;10.27;7.30;;;9.50;99.90;;;;;;5075537;28;20040;-89
2021/05/19 05:05:27;;;;;;;8.15;6.43;;;9.50;99.90;;;;;;5058167;28;20040;-88
2021/05/19 05:11:04;;;;;;;9.63;6.05;;;9.60;99.90;;;;;;5062563;28;20036;-88
2021/05/19 05:16:34;;;;;;;7.70;6.55;;;9.70;99.90;;;;;;5075123;28;20507;-88
2021/05/19 05:19:00;;;;;;;9.13;6.97;;;9.70;99.90;;;;;;5056631;28;20107;-87
2021/05/19 05:21:27;;;;;;;8.43;7.15;;;9.80;99.90;;;;;;5022974;28;20037;-90
2021/05/19 05:24:13;;;;;;;9.00;6.22;;;9.80;99.90;;;;;;5055948;28;20072;-90
2021/05/19 05:26:40;;;;;;;8.20;6.65;;;9.90;99.90;;;;;;5058559;28;20032;-89
2021/05/19 05:29:05;;;;;;;7.75;6.22;;;9.90;99.90;;;;;;5038348;28;20139;-90
2021/05/19 05:32:09;;;;;;;8.43;6.78;;;10.00;99.90;;;;;;5052647;28;20039;-90
2021/05/19 05:37:43;;;;;;;9.48;7.70;;;10.10;99.90;;;;;;5067011;28;20039;-88
2021/05/19 05:43:15;;;;;;;12.40;9.05;;;10.20;99.90;;;;;;5059338;28;20056;-88
2021/05/19 05:46:30;;;;;;;14.73;11.20;;;10.20;99.90;;;;;;5041686;28;20041;-90
2021/05/19 05:49:02;;;;;;;12.40;9.75;;;10.20;99.90;;;;;;4995735;28;20054;-89
2021/05/19 05:52:08;;;;;;;11.88;10.50;;;10.30;99.90;;;;;;4985827;28;20066;-89
2021/05/19 05:54:53;;;;;;;10.13;8.90;;;10.40;99.90;;;;;;5077307;28;20082;-88
2021/05/19 05:57:41;;;;;;;11.75;9.75;;;10.40;99.90;;;;;;5100717;28;20083;-91
2021/05/19 06:00:30;;;;;;;10.82;8.65;;;10.40;99.90;;;;;;5103469;28;20119;-89
2021/05/19 06:02:56;;;;;;;10.30;7.93;;;10.50;99.90;;;;;;5063044;28;20048;-90
2021/05/19 06:05:23;;;;;;;10.70;7.43;;;10.50;99.90;;;;;;5078048;28;20066;-90
2021/05/19 06:07:53;;;;;;;11.18;8.90;;;10.50;99.90;;;;;;5059525;28;20453;-89
2021/05/19 06:10:38;;;;;;;13.27;9.05;;;10.50;99.90;;;;;;5095228;28;20047;-89
2021/05/19 06:16:07;;;;;;;14.18;10.45;;;10.60;99.90;;;;;;5099649;28;20058;-89
2021/05/19 06:18:53;;;;;;;14.65;10.55;;;10.70;99.90;;;;;;5058953;28;20469;-90
2021/05/19 06:21:19;;;;;;;14.57;11.45;;;10.80;99.90;;;;;;5097566;28;20129;-90
2021/05/19 06:27:20;;;;;;;14.90;10.50;;;11.20;99.90;;;;;;5097020;28;20087;-90
2021/05/19 06:29:52;;;;;;;18.65;13.60;;;11.40;99.90;;;;;;5100755;28;20032;-89
2021/05/19 06:35:27;;;;;;;15.57;11.68;;;11.60;99.90;;;;;;5088459;28;20051;-90
2021/05/19 06:38:21;;;;;;;19.38;14.27;;;11.70;99.90;;;;;;5091553;28;20028;-89
2021/05/19 06:43:53;;;;;;;17.80;13.63;;;11.90;99.90;;;;;;5084100;28;20103;-89
2021/05/19 06:46:22;;;;;;;19.25;14.65;;;12.00;99.90;;;;;;5075874;28;20067;-89
2021/05/19 06:49:03;;;;;;;16.25;13.18;;;12.00;99.90;;;;;;5095179;28;20115;-89
2021/05/19 06:54:23;;;;;;;20.02;13.43;;;12.10;99.90;;;;;;5097540;28;20050;-90
2021/05/19 06:59:36;;;;;;;18.67;12.88;;;12.20;99.90;;;;;;5095160;28;20047;-89
2021/05/19 07:02:32;;;;;;;18.38;14.25;;;12.20;99.90;;;;;;5078489;28;20036;-89
2021/05/19 07:05:00;;;;;;;19.60;15.35;;;12.20;99.90;;;;;;5077836;28;20024;-89
2021/05/19 07:07:26;;;;;;;19.52;14.45;;;12.20;99.90;;;;;;5076129;28;20062;-90
2021/05/19 07:10:13;;;;;;;24.23;16.60;;;12.10;99.90;;;;;;5059655;28;20032;-90
2021/05/19 07:13:07;;;;;;;22.42;17.00;;;12.10;99.90;;;;;;5088795;28;20036;-88
2021/05/19 07:15:53;;;;;;;25.67;17.42;;;12.20;99.90;;;;;;5103545;28;20027;-89
2021/05/19 07:18:28;;;;;;;21.75;16.20;;;12.20;99.90;;;;;;5090130;28;20032;-91
2021/05/19 07:21:30;;;;;;;21.58;15.95;;;12.30;99.90;;;;;;5072617;28;20039;-89
2021/05/19 07:24:26;;;;;;;22.65;15.50;;;12.40;99.90;;;;;;5117189;28;20172;-89
2021/05/19 07:29:43;;;;;;;27.15;18.75;;;12.50;99.90;;;;;;5096414;28;20089;-88
2021/05/19 07:35:34;;;;;;;23.73;16.88;;;12.30;99.90;;;;;;5086405;28;20047;-88
2021/05/19 07:38:06;;;;;;;23.42;17.92;;;12.20;99.90;;;;;;5077092;28;20415;-89
2021/05/19 07:46:47;;;;;;;21.67;16.40;;;12.20;99.90;;;;;;5093890;28;20087;-88
2021/05/19 07:49:19;;;;;;;22.10;15.10;;;12.40;99.90;;;;;;5078763;28;20044;-88
2021/05/19 07:54:52;;;;;;;24.20;17.60;;;13.00;99.90;;;;;;5098557;28;20438;-88
2021/05/19 07:57:47;;;;;;;24.90;18.30;;;13.20;99.90;;;;;;5080604;28;20083;-89
2021/05/19 08:03:21;;;;;;;21.50;15.57;;;13.20;99.90;;;;;;5089919;28;20042;-87
2021/05/19 08:06:12;;;;;;;24.17;16.00;;;13.10;99.90;;;;;;5059113;28;20088;-87
2021/05/19 08:12:03;;;;;;;25.30;17.40;;;13.10;99.90;;;;;;5097668;28;20063;-86
2021/05/19 08:14:51;;;;;;;20.08;15.35;;;13.10;99.90;;;;;;5092970;28;20036;-87
2021/05/19 08:17:37;;;;;;;22.77;17.17;;;13.10;99.90;;;;;;5080793;28;20488;-87
2021/05/19 08:23:16;;;;;;;20.30;15.80;;;13.20;99.90;;;;;;5086175;28;20051;-87
2021/05/19 08:26:07;;;;;;;21.40;15.95;;;13.20;99.90;;;;;;5098828;28;20032;-89
2021/05/19 08:28:36;;;;;;;19.75;15.10;;;13.20;99.90;;;;;;5098393;28;20031;-86
2021/05/19 08:31:08;;;;;;;24.75;18.50;;;13.10;99.90;;;;;;5080928;28;20028;-87
2021/05/19 08:36:29;;;;;;;21.42;16.30;;;13.00;99.90;;;;;;5102433;28;20038;-87
2021/05/19 08:38:56;;;;;;;18.13;14.15;;;13.10;99.90;;;;;;5093326;28;20027;-87
2021/05/19 08:41:43;;;;;;;18.35;13.32;;;13.20;99.90;;;;;;5067967;28;20040;-87
2021/05/19 08:46:59;;;;;;;13.88;12.13;;;13.90;99.90;;;;;;5070016;28;20043;-87
2021/05/19 08:49:27;;;;;;;20.08;14.43;;;14.00;99.90;;;;;;5080987;28;20044;-87
2021/05/19 08:52:18;;;;;;;23.13;14.13;;;14.10;99.90;;;;;;5059195;28;20033;-87
2021/05/19 08:54:54;;;;;;;21.50;14.60;;;14.10;99.90;;;;;;5078096;28;20044;-87
2021/05/19 08:57:59;;;;;;;20.90;14.85;;;14.00;99.90;;;;;;5085829;28;20506;-86
2021/05/19 09:03:56;;;;;;;20.27;15.02;;;14.30;99.90;;;;;;5096731;28;20441;-87
2021/05/19 09:06:23;;;;;;;15.38;12.90;;;14.60;99.90;;;;;;5095797;28;20050;-87
2021/05/19 09:12:08;;;;;;;15.07;10.95;;;14.90;99.90;;;;;;5102018;28;20086;-88
2021/05/19 09:14:50;;;;;;;17.17;12.85;;;15.20;99.90;;;;;;5078444;28;20032;-88
2021/05/19 09:17:42;;;;;;;20.40;14.70;;;15.50;99.90;;;;;;5091481;28;20056;-88
2021/05/19 09:20:27;;;;;;;21.52;14.20;;;15.70;99.90;;;;;;5096807;28;20476;-88
2021/05/19 09:23:11;;;;;;;17.15;12.80;;;15.80;99.90;;;;;;5080576;28;20040;-87
2021/05/19 09:28:29;;;;;;;23.30;17.90;;;16.20;99.90;;;;;;5085675;28;20584;-88
2021/05/19 09:31:16;;;;;;;24.23;16.73;;;16.10;99.90;;;;;;5093157;28;20090;-88
2021/05/19 09:34:01;;;;;;;19.67;15.88;;;15.90;99.90;;;;;;5090502;28;20192;-86
2021/05/19 09:36:28;;;;;;;21.40;15.82;;;15.60;99.90;;;;;;5080767;28;20036;-88
2021/05/19 09:38:54;;;;;;;19.92;17.23;;;15.20;99.90;;;;;;5092819;28;20032;-88
2021/05/19 09:41:47;;;;;;;22.25;17.00;;;14.90;99.90;;;;;;5070292;28;20039;-88
2021/05/19 09:44:57;;;;;;;16.92;15.13;;;14.40;99.90;;;;;;5081507;28;20039;-87
2021/05/19 09:47:50;;;;;;;20.38;17.42;;;13.90;99.90;;;;;;5076391;28;20105;-87
2021/05/19 09:50:19;;;;;;;21.20;18.07;;;14.00;99.90;;;;;;5082010;28;20115;-87
2021/05/19 09:53:05;;;;;;;22.38;18.73;;;14.30;99.90;;;;;;5079069;28;20270;-88
2021/05/19 09:55:35;;;;;;;22.60;19.50;;;15.10;99.90;;;;;;5087599;28;20368;-87
2021/05/19 09:58:39;;;;;;;22.02;18.88;;;15.80;99.90;;;;;;5083695;28;20062;-87
2021/05/19 10:01:25;;;;;;;22.38;19.70;;;16.70;99.90;;;;;;5079140;28;20047;-89
2021/05/19 10:03:55;;;;;;;21.55;16.25;;;17.20;99.90;;;;;;5090678;28;20040;-89
2021/05/19 10:06:34;;;;;;;18.35;15.13;;;17.00;99.90;;;;;;5080079;28;20032;-88
2021/05/19 10:09:04;;;;;;;22.55;18.15;;;16.70;99.90;;;;;;5075662;28;20485;-87
2021/05/19 10:11:50;;;;;;;20.35;16.70;;;16.50;99.90;;;;;;5087732;28;20024;-87
2021/05/19 10:17:39;;;;;;;17.25;14.88;;;17.20;99.90;;;;;;5084399;28;20097;-86
2021/05/19 10:20:08;;;;;;;19.15;14.93;;;17.30;99.90;;;;;;5078125;28;20028;-87
2021/05/19 10:22:36;;;;;;;16.20;13.35;;;17.20;99.90;;;;;;5062254;28;20032;-88
2021/05/19 10:28:34;;;;;;;17.38;14.90;;;16.80;99.90;;;;;;5096017;28;20047;-87
2021/05/19 10:31:27;;;;;;;12.60;11.20;;;16.80;99.90;;;;;;5065238;28;20048;-88
2021/05/19 10:34:15;;;;;;;20.27;13.80;;;17.10;99.90;;;;;;5083279;28;20054;-87
2021/05/19 10:36:49;;;;;;;15.37;11.47;;;17.30;99.90;;;;;;5078623;28;20038;-88
2021/05/19 10:42:41;;;;;;;11.32;10.02;;;18.10;99.90;;;;;;5098256;28;20121;-85
2021/05/19 10:45:13;;;;;;;15.32;10.48;;;18.20;99.90;;;;;;5090353;28;20123;-88
2021/05/19 10:48:22;;;;;;;10.23;9.15;;;17.90;99.90;;;;;;5088043;28;20422;-87
2021/05/19 10:50:51;;;;;;;14.70;10.40;;;17.80;99.90;;;;;;5054327;28;20032;-87
2021/05/19 10:57:30;;;;;;;1.80;1.33;;;16.80;99.90;;;;;;5092287;28;20083;-91
2021/05/19 11:00:38;;;;;;;3.60;0.82;;;15.70;99.90;;;;;;5042279;28;20094;-88
2021/05/19 11:03:12;;;;;;;2.95;0.85;;;14.30;99.90;;;;;;5075745;28;20044;-89
2021/05/19 11:05:57;;;;;;;3.95;0.80;;;13.20;99.90;;;;;;5083266;28;20040;-90
2021/05/19 11:08:50;;;;;;;1.30;0.57;;;12.50;99.90;;;;;;5056416;28;20079;-92
2021/05/19 11:11:30;;;;;;;1.95;0.70;;;11.80;99.90;;;;;;5056590;28;20055;-89
2021/05/19 11:17:27;;;;;;;1.55;0.73;;;10.70;99.90;;;;;;5058800;28;20384;-92
2021/05/19 11:22:41;;;;;;;2.20;0.60;;;10.20;99.90;;;;;;5074890;28;20035;-87
2021/05/19 11:30:43;;;;;;;2.90;0.60;;;10.10;99.90;;;;;;5059415;28;20091;-87
2021/05/19 11:33:14;;;;;;;1.17;0.40;;;10.10;99.90;;;;;;5057069;28;20033;-87
2021/05/19 11:36:17;;;;;;;1.00;0.60;;;10.20;99.90;;;;;;5056614;28;20028;-88
2021/05/19 11:39:05;;;;;;;0.95;0.70;;;10.20;99.90;;;;;;5058161;28;20107;-86
2021/05/19 11:41:32;;;;;;;1.48;0.70;;;10.30;99.90;;;;;;5056431;28;20131;-89
2021/05/19 11:44:00;;;;;;;1.42;0.60;;;10.20;99.90;;;;;;5074301;28;20032;-90
2021/05/19 11:46:45;;;;;;;0.95;0.55;;;10.20;99.90;;;;;;5056342;28;20033;-89
2021/05/19 11:49:49;;;;;;;1.98;0.50;;;10.30;99.90;;;;;;5073890;28;20374;-89
2021/05/19 11:52:34;;;;;;;2.07;0.50;;;10.30;99.90;;;;;;5056765;28;20174;-88
2021/05/19 11:55:31;;;;;;;3.85;0.60;;;10.30;99.90;;;;;;5042455;28;20491;-88
2021/05/19 11:58:08;;;;;;;0.90;0.40;;;10.40;99.90;;;;;;5067105;28;20301;-88
2021/05/19 12:00:37;;;;;;;1.17;0.77;;;10.40;99.90;;;;;;5082996;28;20039;-89
2021/05/19 12:03:24;;;;;;;2.45;0.70;;;10.50;99.90;;;;;;5085718;28;20050;-88
2021/05/19 12:06:07;;;;;;;1.55;0.50;;;10.60;99.90;;;;;;5083454;28;20032;-88
2021/05/19 12:17:43;;;;;;;6.18;0.40;;;11.00;99.90;;;;;;5040730;28;20198;-91
2021/05/19 12:20:30;;;;;;;1.63;0.60;;;11.10;99.90;;;;;;5083203;28;20119;-90
2021/05/19 12:23:19;;;;;;;1.67;0.55;;;11.30;99.90;;;;;;5035881;28;20056;-91
2021/05/19 12:25:47;;;;;;;0.50;0.40;;;11.40;99.90;;;;;;5085473;28;20112;-90
2021/05/19 12:28:21;;;;;;;0.75;0.40;;;11.50;99.90;;;;;;5075046;28;20147;-89
2021/05/19 12:31:06;;;;;;;0.60;0.50;;;11.50;99.90;;;;;;5047417;28;20060;-88
2021/05/19 12:39:37;;;;;;;0.80;0.40;;;11.70;99.90;;;;;;5091425;28;20461;-88
2021/05/19 12:42:35;;;;;;;1.40;0.60;;;11.90;99.90;;;;;;5071418;28;20401;-89
2021/05/19 12:45:00;;;;;;;0.85;0.52;;;11.90;99.90;;;;;;5077819;28;20589;-87
2021/05/19 12:47:27;;;;;;;1.50;0.65;;;11.80;99.90;;;;;;5081644;28;20032;-89
2021/05/19 12:50:03;;;;;;;0.80;0.50;;;11.80;99.90;;;;;;5083046;28;20050;-87
2021/05/19 12:53:06;;;;;;;2.58;0.60;;;12.00;99.90;;;;;;5084703;28;20036;-88
2021/05/19 12:55:32;;;;;;;1.95;0.70;;;12.00;99.90;;;;;;5083765;28;20116;-89
2021/05/19 12:58:10;;;;;;;0.85;0.50;;;12.00;99.90;;;;;;5092322;28;20078;-87
2021/05/19 13:03:58;;;;;;;2.58;0.80;;;12.30;99.90;;;;;;5063418;28;20541;-87
2021/05/19 13:09:20;;;;;;;1.63;0.57;;;12.80;99.90;;;;;;5082401;28;20034;-87
2021/05/19 13:12:17;;;;;;;1.08;0.60;;;13.20;99.90;;;;;;5050720;28;20039;-88
2021/05/19 13:14:46;;;;;;;1.17;0.60;;;13.60;99.90;;;;;;5089335;28;20036;-88
2021/05/19 13:20:21;;;;;;;1.45;0.80;;;14.20;99.90;;;;;;5091959;28;20039;-88
2021/05/19 13:25:52;;;;;;;2.15;0.98;;;14.60;99.90;;;;;;5084202;28;20046;-90
2021/05/19 13:28:39;;;;;;;2.45;1.15;;;14.60;99.90;;;;;;5055034;28;20377;-87
2021/05/19 13:37:21;;;;;;;1.80;1.00;;;15.40;99.90;;;;;;5088197;28;20090;-87
2021/05/19 13:40:06;;;;;;;1.55;1.00;;;15.90;99.90;;;;;;5071105;28;20046;-88
2021/05/19 13:42:51;;;;;;;2.97;1.33;;;16.40;99.90;;;;;;5067179;28;20071;-87
2021/05/19 13:45:18;;;;;;;2.22;1.10;;;16.60;99.90;;;;;;5064266;28;20043;-87
2021/05/19 13:48:02;;;;;;;3.80;1.25;;;16.90;99.90;;;;;;5073318;28;20046;-88
2021/05/19 13:50:28;;;;;;;1.92;1.00;;;17.00;99.90;;;;;;5072202;28;20032;-87
2021/05/19 13:53:32;;;;;;;1.77;0.80;;;17.40;99.90;;;;;;5068029;28;20040;-88
2021/05/19 13:56:05;;;;;;;1.67;0.85;;;18.20;99.90;;;;;;5068840;28;20040;-88
2021/05/19 13:58:33;;;;;;;2.70;1.08;;;18.60;99.90;;;;;;5072286;28;20051;-88
2021/05/19 14:01:06;;;;;;;1.40;0.88;;;18.90;99.90;;;;;;5087301;28;20044;-87
2021/05/19 14:06:19;;;;;;;1.67;1.02;;;19.10;99.90;;;;;;5088086;28;20042;-86
2021/05/19 14:32:45;;;;;;;1.55;0.90;;;17.80;99.90;;;;;;5100710;28;20455;-88
2021/05/19 15:01:35;;;;;;;;;;;18.00;99.90;;;;;;5077943;28;20136;-88
2021/05/19 15:09:52;;;;;;;0.80;0.60;;;18.00;99.90;;;;;;5082505;28;20173;-91
2021/05/19 15:12:18;;;;;;;1.63;0.80;;;17.60;99.90;;;;;;5077665;28;20550;-89
2021/05/19 15:14:46;;;;;;;2.05;0.80;;;17.10;99.90;;;;;;5054454;28;20032;-90
2021/05/19 15:23:40;;;;;;;2.22;0.90;;;16.40;99.90;;;;;;5090294;28;20058;-89
2021/05/19 15:26:07;;;;;;;1.50;0.80;;;16.10;99.90;;;;;;5095895;28;20099;-92
2021/05/19 15:28:51;;;;;;;2.97;1.08;;;15.90;99.90;;;;;;5069825;28;20059;-90
2021/05/19 15:31:36;;;;;;;1.60;0.82;;;15.70;99.90;;;;;;5047935;28;20505;-90
2021/05/19 15:34:25;;;;;;;2.05;1.10;;;15.60;99.90;;;;;;5095749;28;20487;-90
2021/05/19 15:37:12;;;;;;;1.90;0.88;;;15.50;99.90;;;;;;5058934;28;20073;-90
2021/05/19 15:39:40;;;;;;;1.00;0.70;;;15.40;99.90;;;;;;5093453;28;20027;-89
2021/05/19 15:42:09;;;;;;;2.47;1.00;;;15.30;99.90;;;;;;5072342;28;20477;-89
2021/05/19 15:44:38;;;;;;;1.15;0.93;;;15.30;99.90;;;;;;5074547;28;20044;-92
2021/05/19 15:47:04;;;;;;;1.20;0.80;;;15.30;99.90;;;;;;5073457;28;20423;-90
2021/05/19 15:49:54;;;;;;;1.05;0.50;;;15.30;99.90;;;;;;5091463;28;20131;-90
2021/05/19 15:52:25;;;;;;;0.90;0.57;;;15.30;99.90;;;;;;5070928;28;20111;-89
2021/05/19 15:54:52;;;;;;;1.27;0.40;;;15.30;99.90;;;;;;5039336;28;20487;-89
2021/05/19 15:57:38;;;;;;;0.80;0.40;;;15.40;99.90;;;;;;5082746;28;20052;-89
2021/05/19 16:00:50;;;;;;;0.40;0.20;;;15.40;99.90;;;;;;5055678;28;20036;-89
2021/05/19 16:03:42;;;;;;;0.52;0.20;;;15.50;99.90;;;;;;5089555;28;20036;-89
2021/05/19 16:06:10;;;;;;;0.22;0.22;;;15.40;99.90;;;;;;5087191;28;20074;-91
2021/05/19 16:08:54;;;;;;;0.28;0.20;;;15.40;99.90;;;;;;5072977;28;20750;-89
2021/05/19 16:14:25;;;;;;;0.35;0.20;;;15.40;99.90;;;;;;5087015;28;20491;-89
2021/05/19 16:16:52;;;;;;;0.25;0.15;;;15.30;99.90;;;;;;5077293;28;20035;-89
2021/05/19 16:19:19;;;;;;;0.65;0.20;;;15.30;99.90;;;;;;5061370;28;20542;-90
2021/05/19 16:25:07;;;;;;;1.48;0.30;;;15.40;99.90;;;;;;5095336;28;20169;-89
2021/05/19 16:31:12;;;;;;;0.63;0.30;;;15.30;99.90;;;;;;5091431;28;20050;-90
2021/05/19 16:34:16;;;;;;;0.77;0.20;;;15.40;99.90;;;;;;5053466;28;20028;-89
2021/05/19 16:36:54;;;;;;;1.20;0.30;;;15.70;99.90;;;;;;5090480;28;20032;-89
2021/05/19 16:39:45;;;;;;;0.30;0.20;;;15.90;99.90;;;;;;5090987;28;20068;-89
2021/05/19 16:42:30;;;;;;;2.05;0.40;;;16.10;99.90;;;;;;5062767;28;20032;-91
2021/05/19 16:44:56;;;;;;;1.35;0.52;;;16.30;99.90;;;;;;5078135;28;20030;-91
2021/05/19 16:53:44;;;;;;;0.95;0.30;;;16.40;99.90;;;;;;5090063;28;20134;-88
2021/05/19 16:56:33;;;;;;;0.50;0.20;;;16.40;99.90;;;;;;5089924;28;20036;-89
2021/05/19 17:10:02;;;;;;;1.48;0.80;;;16.80;99.90;;;;;;5085552;28;20320;-89
2021/05/19 17:12:50;;;;;;;1.38;0.63;;;16.60;99.90;;;;;;5071907;28;20036;-90
2021/05/19 17:15:20;;;;;;;1.23;0.80;;;16.50;99.90;;;;;;5068688;28;20029;-89
2021/05/19 17:18:06;;;;;;;2.67;0.80;;;16.30;99.90;;;;;;5043658;28;20033;-90
2021/05/19 17:20:43;;;;;;;1.25;0.73;;;16.30;99.90;;;;;;5066341;28;20068;-89
2021/05/19 17:23:32;;;;;;;1.23;0.68;;;16.20;99.90;;;;;;5090156;28;20059;-89
2021/05/19 17:26:37;;;;;;;1.15;0.70;;;16.10;99.90;;;;;;5093472;28;20394;-91
2021/05/19 17:35:21;;;;;;;1.88;0.90;;;15.90;99.90;;;;;;5111021;28;20039;-90
2021/05/19 17:44:31;;;;;;;1.38;1.20;;;15.90;99.90;;;;;;5089913;28;20074;-89
2021/05/19 17:47:28;;;;;;;3.60;1.38;;;15.80;99.90;;;;;;5094912;28;20032;-92
2021/05/19 17:50:34;;;;;;;2.00;1.20;;;15.70;99.90;;;;;;5093491;28;20036;-90
2021/05/19 17:55:51;;;;;;;1.40;1.20;;;15.60;99.90;;;;;;5094841;28;20760;-91
2021/05/19 17:58:38;;;;;;;3.17;1.20;;;15.50;99.90;;;;;;5080822;28;20320;-93
2021/05/19 18:01:12;;;;;;;1.95;1.35;;;15.40;99.90;;;;;;5089867;28;20047;-93
2021/05/19 18:03:39;;;;;;;1.38;0.98;;;15.30;99.90;;;;;;5086527;28;20039;-93
2021/05/19 18:06:52;;;;;;;2.50;1.45;;;15.20;99.90;;;;;;5087978;28;20430;-91
2021/05/19 18:12:28;;;;;;;4.00;1.67;;;15.10;99.90;;;;;;5076664;28;20177;-94
2021/05/19 18:15:18;;;;;;;2.75;1.60;;;15.10;99.90;;;;;;5075807;28;20204;-92
2021/05/19 18:18:31;;;;;;;2.78;1.90;;;15.10;99.90;;;;;;5092024;28;20036;-92
2021/05/19 18:21:19;;;;;;;3.20;1.77;;;15.00;99.90;;;;;;5086513;28;20043;-91
2021/05/19 18:24:03;;;;;;;3.85;1.77;;;14.90;99.90;;;;;;5089544;28;20526;-92
2021/05/19 18:33:15;;;;;;;2.25;1.73;;;14.70;99.90;;;;;;5084632;28;20047;-90
2021/05/19 18:41:25;;;;;;;2.58;1.60;;;14.40;99.90;;;;;;5056660;28;20476;-89
2021/05/19 18:44:04;;;;;;;1.90;1.60;;;14.30;99.90;;;;;;5071469;28;20040;-88
2021/05/19 18:46:53;;;;;;;2.28;1.48;;;14.30;99.90;;;;;;5097116;28;20035;-90
2021/05/19 18:49:22;;;;;;;2.25;1.20;;;14.30;99.90;;;;;;5073174;28;20036;-89
2021/05/19 18:52:07;;;;;;;2.03;1.35;;;14.20;99.90;;;;;;5091118;28;20382;-91
2021/05/19 18:54:35;;;;;;;2.08;1.40;;;14.10;99.90;;;;;;5092464;28;20107;-91
2021/05/19 18:57:19;;;;;;;3.22;1.80;;;14.10;99.90;;;;;;5059194;28;20043;-89
2021/05/19 19:00:08;;;;;;;2.60;1.67;;;14.00;99.90;;;;;;5069428;28;20432;-89
2021/05/19 19:02:51;;;;;;;2.08;1.38;;;14.00;99.90;;;;;;5069911;28;20032;-90
2021/05/19 19:05:27;;;;;;;3.33;1.83;;;14.00;99.90;;;;;;5086889;28;20051;-91
2021/05/19 19:08:14;;;;;;;2.78;1.40;;;14.00;99.90;;;;;;5067231;28;20039;-89
2021/05/19 19:13:26;;;;;;;1.83;1.33;;;13.90;99.90;;;;;;5088512;28;20059;-90
2021/05/19 19:16:16;;;;;;;1.85;1.35;;;13.70;99.90;;;;;;5070663;28;20032;-89